sensor_id;sensor_type;location;lat;lon;timestamp;temperature;humidity
22532;DHT22;11432;46.924;7.114;2022-09-06T00:00:34;19.10;99.90
22532;DHT22;11432;46.924;7.114;2022-09-06T00:03:00;19.00;99.90
22532;DHT22;11432;46.924;7.114;2022-09-06T00:05:27;19.00;99.90
22532;DHT22;11432;46.924;7.114;2022-09-06T00:07:53;19.00;99.90
22532;DHT22;11432;46.924;7.114;2022-09-06T00:10:19;19.00;99.90
22532;DHT22;11432;46.924;7.114;2022-09-06T00:12:45;19.00;99.90
22532;DHT22;11432;46.924;7.114;2022-09-06T00:15:12;19.00;99.90
22532;DHT22;11432;46.924;7.114;2022-09-06T00:17:37;19.00;99.90
22532;DHT22;11432;46.924;7.114;2022-09-06T00:20:04;19.00;99.90
22532;DHT22;11432;46.924;7.114;2022-09-06T00:22:33;19.00;99.90
22532;DHT22;11432;46.924;7.114;2022-09-06T00:24:59;19.00;99.90
22532;DHT22;11432;46.924;7.114;2022-09-06T00:27:24;19.00;99.90
22532;DHT22;11432;46.924;7.114;2022-09-06T00:29:50;19.00;99.90
22532;DHT22;11432;46.924;7.114;2022-09-06T00:32:16;19.00;99.90
22532;DHT22;11432;46.924;7.114;2022-09-06T00:34:42;19.00;99.90
22532;DHT22;11432;46.924;7.114;2022-09-06T00:37:07;19.00;99.90
22532;DHT22;11432;46.924;7.114;2022-09-06T00:39:33;19.00;99.90
22532;DHT22;11432;46.924;7.114;2022-09-06T00:41:59;19.00;99.90
22532;DHT22;11432;46.924;7.114;2022-09-06T00:44:25;18.90;99.90
22532;DHT22;11432;46.924;7.114;2022-09-06T00:46:52;18.90;99.90
22532;DHT22;11432;46.924;7.114;2022-09-06T00:49:23;18.90;99.90
22532;DHT22;11432;46.924;7.114;2022-09-06T00:52:03;18.90;99.90
22532;DHT22;11432;46.924;7.114;2022-09-06T00:54:30;18.80;99.90
22532;DHT22;11432;46.924;7.114;2022-09-06T00:56:57;18.80;99.90
22532;DHT22;11432;46.924;7.114;2022-09-06T00:59:24;18.80;99.90
22532;DHT22;11432;46.924;7.114;2022-09-06T01:01:51;18.80;99.90
22532;DHT22;11432;46.924;7.114;2022-09-06T01:04:17;18.80;99.90
22532;DHT22;11432;46.924;7.114;2022-09-06T01:07:00;18.80;99.90
22532;DHT22;11432;46.924;7.114;2022-09-06T01:18:02;18.80;99.90
22532;DHT22;11432;46.924;7.114;2022-09-06T01:36:25;18.30;99.90
22532;DHT22;11432;46.924;7.114;2022-09-06T01:38:51;18.20;99.90
22532;DHT22;11432;46.924;7.114;2022-09-06T01:41:17;18.30;99.90
22532;DHT22;11432;46.924;7.114;2022-09-06T01:43:46;18.30;99.90
22532;DHT22;11432;46.924;7.114;2022-09-06T01:55:01;18.30;99.90
22532;DHT22;11432;46.924;7.114;2022-09-06T02:00:07;18.30;99.90
22532;DHT22;11432;46.924;7.114;2022-09-06T02:05:45;18.30;99.90
22532;DHT22;11432;46.924;7.114;2022-09-06T02:08:40;18.20;99.90
22532;DHT22;11432;46.924;7.114;2022-09-06T02:11:08;18.30;99.90
22532;DHT22;11432;46.924;7.114;2022-09-06T02:13:50;18.30;99.90
22532;DHT22;11432;46.924;7.114;2022-09-06T02:16:19;18.30;99.90
22532;DHT22;11432;46.924;7.114;2022-09-06T02:21:18;18.30;99.90
22532;DHT22;11432;46.924;7.114;2022-09-06T02:23:46;18.30;99.90
22532;DHT22;11432;46.924;7.114;2022-09-06T02:26:18;18.30;99.90
22532;DHT22;11432;46.924;7.114;2022-09-06T02:28:46;18.20;99.90
22532;DHT22;11432;46.924;7.114;2022-09-06T02:31:20;18.20;99.90
22532;DHT22;11432;46.924;7.114;2022-09-06T02:33:48;18.20;99.90
22532;DHT22;11432;46.924;7.114;2022-09-06T02:36:15;18.10;99.90
22532;DHT22;11432;46.924;7.114;2022-09-06T02:38:43;18.10;99.90
22532;DHT22;11432;46.924;7.114;2022-09-06T02:41:11;18.10;99.90
22532;DHT22;11432;46.924;7.114;2022-09-06T02:43:38;18.10;99.90
22532;DHT22;11432;46.924;7.114;2022-09-06T02:46:04;18.10;99.90
22532;DHT22;11432;46.924;7.114;2022-09-06T02:48:30;18.10;99.90
22532;DHT22;11432;46.924;7.114;2022-09-06T02:50:56;18.10;99.90
22532;DHT22;11432;46.924;7.114;2022-09-06T02:53:21;18.00;99.90
22532;DHT22;11432;46.924;7.114;2022-09-06T02:55:47;18.00;99.90
22532;DHT22;11432;46.924;7.114;2022-09-06T02:58:13;18.00;99.90
22532;DHT22;11432;46.924;7.114;2022-09-06T03:00:39;18.00;99.90
22532;DHT22;11432;46.924;7.114;2022-09-06T03:03:05;18.00;99.90
22532;DHT22;11432;46.924;7.114;2022-09-06T03:05:32;18.10;99.90
22532;DHT22;11432;46.924;7.114;2022-09-06T03:07:58;18.10;99.90
22532;DHT22;11432;46.924;7.114;2022-09-06T03:10:24;18.10;99.90
22532;DHT22;11432;46.924;7.114;2022-09-06T03:12:51;18.00;99.90
22532;DHT22;11432;46.924;7.114;2022-09-06T03:15:17;18.00;99.90
22532;DHT22;11432;46.924;7.114;2022-09-06T03:17:43;18.00;99.90
22532;DHT22;11432;46.924;7.114;2022-09-06T03:20:10;17.90;99.90
22532;DHT22;11432;46.924;7.114;2022-09-06T03:22:37;17.90;99.90
22532;DHT22;11432;46.924;7.114;2022-09-06T03:25:04;18.00;99.90
22532;DHT22;11432;46.924;7.114;2022-09-06T03:27:30;18.00;99.90
22532;DHT22;11432;46.924;7.114;2022-09-06T03:29:56;18.00;99.90
22532;DHT22;11432;46.924;7.114;2022-09-06T03:32:22;18.00;99.90
22532;DHT22;11432;46.924;7.114;2022-09-06T03:34:48;18.00;99.90
22532;DHT22;11432;46.924;7.114;2022-09-06T03:37:13;18.00;99.90
22532;DHT22;11432;46.924;7.114;2022-09-06T03:39:39;18.10;99.90
22532;DHT22;11432;46.924;7.114;2022-09-06T03:42:05;18.10;99.90
22532;DHT22;11432;46.924;7.114;2022-09-06T03:44:30;18.00;99.90
22532;DHT22;11432;46.924;7.114;2022-09-06T03:46:56;18.10;99.90
22532;DHT22;11432;46.924;7.114;2022-09-06T03:49:23;18.10;99.90
22532;DHT22;11432;46.924;7.114;2022-09-06T03:51:48;18.10;99.90
22532;DHT22;11432;46.924;7.114;2022-09-06T03:54:14;18.10;99.90
22532;DHT22;11432;46.924;7.114;2022-09-06T03:56:40;18.20;99.90
22532;DHT22;11432;46.924;7.114;2022-09-06T03:59:05;18.20;99.90
22532;DHT22;11432;46.924;7.114;2022-09-06T04:01:31;18.20;99.90
22532;DHT22;11432;46.924;7.114;2022-09-06T04:03:57;18.30;99.90
22532;DHT22;11432;46.924;7.114;2022-09-06T04:06:22;18.30;99.90
22532;DHT22;11432;46.924;7.114;2022-09-06T04:08:48;18.40;99.90
22532;DHT22;11432;46.924;7.114;2022-09-06T04:11:14;18.30;99.90
22532;DHT22;11432;46.924;7.114;2022-09-06T04:13:39;18.30;99.90
22532;DHT22;11432;46.924;7.114;2022-09-06T04:16:05;18.30;99.90
22532;DHT22;11432;46.924;7.114;2022-09-06T04:18:31;18.30;99.90
22532;DHT22;11432;46.924;7.114;2022-09-06T04:20:57;18.30;99.90
22532;DHT22;11432;46.924;7.114;2022-09-06T04:23:25;18.30;99.90
22532;DHT22;11432;46.924;7.114;2022-09-06T04:25:53;18.30;99.90
22532;DHT22;11432;46.924;7.114;2022-09-06T04:28:19;18.40;99.90
22532;DHT22;11432;46.924;7.114;2022-09-06T04:30:56;18.40;99.90
22532;DHT22;11432;46.924;7.114;2022-09-06T04:33:23;18.40;99.90
22532;DHT22;11432;46.924;7.114;2022-09-06T04:35:53;18.30;99.90
22532;DHT22;11432;46.924;7.114;2022-09-06T04:38:19;18.30;99.90
22532;DHT22;11432;46.924;7.114;2022-09-06T04:40:44;18.30;99.90
22532;DHT22;11432;46.924;7.114;2022-09-06T04:43:10;18.30;99.90
22532;DHT22;11432;46.924;7.114;2022-09-06T04:45:36;18.20;99.90
22532;DHT22;11432;46.924;7.114;2022-09-06T04:48:02;18.20;99.90
22532;DHT22;11432;46.924;7.114;2022-09-06T04:50:27;18.20;99.90
22532;DHT22;11432;46.924;7.114;2022-09-06T04:52:53;18.10;99.90
22532;DHT22;11432;46.924;7.114;2022-09-06T04:55:19;18.10;99.90
22532;DHT22;11432;46.924;7.114;2022-09-06T04:57:44;18.20;99.90
22532;DHT22;11432;46.924;7.114;2022-09-06T05:00:10;18.20;99.90
22532;DHT22;11432;46.924;7.114;2022-09-06T05:02:36;18.30;99.90
22532;DHT22;11432;46.924;7.114;2022-09-06T05:05:01;18.30;99.90
22532;DHT22;11432;46.924;7.114;2022-09-06T05:07:29;18.30;99.90
22532;DHT22;11432;46.924;7.114;2022-09-06T05:09:55;18.40;99.90
22532;DHT22;11432;46.924;7.114;2022-09-06T05:12:21;18.40;99.90
22532;DHT22;11432;46.924;7.114;2022-09-06T05:14:46;18.50;99.90
22532;DHT22;11432;46.924;7.114;2022-09-06T05:17:12;18.50;99.90
22532;DHT22;11432;46.924;7.114;2022-09-06T05:19:39;18.50;99.90
22532;DHT22;11432;46.924;7.114;2022-09-06T05:22:05;18.50;99.90
22532;DHT22;11432;46.924;7.114;2022-09-06T05:24:31;18.50;99.90
22532;DHT22;11432;46.924;7.114;2022-09-06T05:26:56;18.60;99.90
22532;DHT22;11432;46.924;7.114;2022-09-06T05:29:23;18.60;99.90
22532;DHT22;11432;46.924;7.114;2022-09-06T05:31:49;18.50;99.90
22532;DHT22;11432;46.924;7.114;2022-09-06T05:34:14;18.50;99.90
22532;DHT22;11432;46.924;7.114;2022-09-06T05:36:40;18.40;99.90
22532;DHT22;11432;46.924;7.114;2022-09-06T05:39:06;18.50;99.90
22532;DHT22;11432;46.924;7.114;2022-09-06T05:41:32;18.40;99.90
22532;DHT22;11432;46.924;7.114;2022-09-06T05:43:58;18.50;99.90
22532;DHT22;11432;46.924;7.114;2022-09-06T05:46:24;18.50;99.90
22532;DHT22;11432;46.924;7.114;2022-09-06T05:48:55;18.60;99.90
22532;DHT22;11432;46.924;7.114;2022-09-06T05:51:22;18.50;99.90
22532;DHT22;11432;46.924;7.114;2022-09-06T05:53:48;18.60;99.90
22532;DHT22;11432;46.924;7.114;2022-09-06T05:56:15;18.60;99.90
22532;DHT22;11432;46.924;7.114;2022-09-06T05:58:41;18.70;99.90
22532;DHT22;11432;46.924;7.114;2022-09-06T06:01:21;18.70;99.90
22532;DHT22;11432;46.924;7.114;2022-09-06T06:03:58;18.70;99.90
22532;DHT22;11432;46.924;7.114;2022-09-06T06:06:27;18.80;99.90
22532;DHT22;11432;46.924;7.114;2022-09-06T06:08:53;18.80;99.90
22532;DHT22;11432;46.924;7.114;2022-09-06T06:11:18;18.80;99.90
22532;DHT22;11432;46.924;7.114;2022-09-06T06:13:44;18.80;99.90
22532;DHT22;11432;46.924;7.114;2022-09-06T06:16:15;18.90;99.90
22532;DHT22;11432;46.924;7.114;2022-09-06T06:18:41;18.80;99.90
22532;DHT22;11432;46.924;7.114;2022-09-06T06:21:25;18.80;99.90
22532;DHT22;11432;46.924;7.114;2022-09-06T06:23:56;18.90;99.90
22532;DHT22;11432;46.924;7.114;2022-09-06T06:26:25;18.80;99.90
22532;DHT22;11432;46.924;7.114;2022-09-06T06:28:51;18.90;99.90
22532;DHT22;11432;46.924;7.114;2022-09-06T06:31:18;18.90;99.90
22532;DHT22;11432;46.924;7.114;2022-09-06T06:33:46;18.90;99.90
22532;DHT22;11432;46.924;7.114;2022-09-06T06:38:39;19.00;99.90
22532;DHT22;11432;46.924;7.114;2022-09-06T06:41:07;19.10;99.90
22532;DHT22;11432;46.924;7.114;2022-09-06T06:43:33;19.20;99.90
22532;DHT22;11432;46.924;7.114;2022-09-06T06:46:22;19.40;99.90
22532;DHT22;11432;46.924;7.114;2022-09-06T06:48:48;19.70;99.90
22532;DHT22;11432;46.924;7.114;2022-09-06T06:51:16;19.90;99.90
22532;DHT22;11432;46.924;7.114;2022-09-06T06:53:44;20.10;99.90
22532;DHT22;11432;46.924;7.114;2022-09-06T06:56:20;20.30;99.90
22532;DHT22;11432;46.924;7.114;2022-09-06T06:58:47;20.50;90.90
22532;DHT22;11432;46.924;7.114;2022-09-06T07:01:17;20.40;84.50
22532;DHT22;11432;46.924;7.114;2022-09-06T07:03:45;20.50;76.00
22532;DHT22;11432;46.924;7.114;2022-09-06T07:06:11;20.60;33.00
22532;DHT22;11432;46.924;7.114;2022-09-06T07:08:37;20.60;7.90
22532;DHT22;11432;46.924;7.114;2022-09-06T07:11:04;20.60;9.30
22532;DHT22;11432;46.924;7.114;2022-09-06T07:13:30;20.70;1.00
22532;DHT22;11432;46.924;7.114;2022-09-06T07:16:08;21.00;1.00
22532;DHT22;11432;46.924;7.114;2022-09-06T07:18:34;21.10;1.00
22532;DHT22;11432;46.924;7.114;2022-09-06T07:20:59;21.20;1.00
22532;DHT22;11432;46.924;7.114;2022-09-06T07:23:25;21.20;1.00
22532;DHT22;11432;46.924;7.114;2022-09-06T07:25:51;21.00;2.90
22532;DHT22;11432;46.924;7.114;2022-09-06T07:28:17;20.60;42.90
22532;DHT22;11432;46.924;7.114;2022-09-06T07:30:42;20.50;99.90
22532;DHT22;11432;46.924;7.114;2022-09-06T07:33:08;20.50;99.90
22532;DHT22;11432;46.924;7.114;2022-09-06T07:35:34;20.40;77.60
22532;DHT22;11432;46.924;7.114;2022-09-06T07:38:00;20.50;99.90
22532;DHT22;11432;46.924;7.114;2022-09-06T07:40:28;20.50;99.90
22532;DHT22;11432;46.924;7.114;2022-09-06T07:42:58;20.60;44.30
22532;DHT22;11432;46.924;7.114;2022-09-06T07:45:24;20.50;71.20
22532;DHT22;11432;46.924;7.114;2022-09-06T07:47:56;20.60;99.90
22532;DHT22;11432;46.924;7.114;2022-09-06T07:50:25;20.70;40.70
22532;DHT22;11432;46.924;7.114;2022-09-06T07:52:51;20.60;35.00
22532;DHT22;11432;46.924;7.114;2022-09-06T07:55:16;20.70;20.30
22532;DHT22;11432;46.924;7.114;2022-09-06T07:57:42;20.90;23.60
22532;DHT22;11432;46.924;7.114;2022-09-06T08:00:08;20.90;2.10
22532;DHT22;11432;46.924;7.114;2022-09-06T08:02:35;20.80;1.00
22532;DHT22;11432;46.924;7.114;2022-09-06T08:05:01;20.80;6.10
22532;DHT22;11432;46.924;7.114;2022-09-06T08:07:26;20.90;26.10
22532;DHT22;11432;46.924;7.114;2022-09-06T08:09:52;21.00;1.00
22532;DHT22;11432;46.924;7.114;2022-09-06T08:12:18;21.30;1.00
22532;DHT22;11432;46.924;7.114;2022-09-06T08:14:43;21.40;1.00
22532;DHT22;11432;46.924;7.114;2022-09-06T08:17:09;21.50;1.00
22532;DHT22;11432;46.924;7.114;2022-09-06T08:19:34;21.60;1.00
22532;DHT22;11432;46.924;7.114;2022-09-06T08:22:01;21.80;1.00
22532;DHT22;11432;46.924;7.114;2022-09-06T08:24:27;21.80;1.00
22532;DHT22;11432;46.924;7.114;2022-09-06T08:26:52;21.90;1.00
22532;DHT22;11432;46.924;7.114;2022-09-06T08:29:18;21.90;1.00
22532;DHT22;11432;46.924;7.114;2022-09-06T08:31:46;21.90;1.00
22532;DHT22;11432;46.924;7.114;2022-09-06T08:34:12;21.80;1.00
22532;DHT22;11432;46.924;7.114;2022-09-06T08:36:39;21.80;1.00
22532;DHT22;11432;46.924;7.114;2022-09-06T08:39:06;21.80;1.00
22532;DHT22;11432;46.924;7.114;2022-09-06T08:44:20;21.80;1.00
22532;DHT22;11432;46.924;7.114;2022-09-06T08:46:57;21.80;1.00
22532;DHT22;11432;46.924;7.114;2022-09-06T08:49:28;21.80;1.00
22532;DHT22;11432;46.924;7.114;2022-09-06T08:52:29;21.80;1.00
22532;DHT22;11432;46.924;7.114;2022-09-06T09:00:14;21.70;1.00
22532;DHT22;11432;46.924;7.114;2022-09-06T09:02:45;21.70;1.00
22532;DHT22;11432;46.924;7.114;2022-09-06T09:05:22;21.60;1.00
22532;DHT22;11432;46.924;7.114;2022-09-06T09:11:01;21.70;1.00
22532;DHT22;11432;46.924;7.114;2022-09-06T09:13:57;21.70;1.00
22532;DHT22;11432;46.924;7.114;2022-09-06T09:16:24;21.70;1.00
22532;DHT22;11432;46.924;7.114;2022-09-06T09:18:56;21.80;1.00
22532;DHT22;11432;46.924;7.114;2022-09-06T09:21:24;21.80;1.00
22532;DHT22;11432;46.924;7.114;2022-09-06T09:23:55;21.90;1.00
22532;DHT22;11432;46.924;7.114;2022-09-06T09:26:24;21.80;1.00
22532;DHT22;11432;46.924;7.114;2022-09-06T09:29:10;21.80;1.00
22532;DHT22;11432;46.924;7.114;2022-09-06T09:34:12;21.80;1.00
22532;DHT22;11432;46.924;7.114;2022-09-06T09:36:38;21.80;1.00
22532;DHT22;11432;46.924;7.114;2022-09-06T09:39:10;21.80;1.00
22532;DHT22;11432;46.924;7.114;2022-09-06T09:41:39;21.80;1.00
22532;DHT22;11432;46.924;7.114;2022-09-06T09:44:09;21.80;1.00
22532;DHT22;11432;46.924;7.114;2022-09-06T09:46:37;21.80;1.00
22532;DHT22;11432;46.924;7.114;2022-09-06T09:49:14;21.80;1.00
22532;DHT22;11432;46.924;7.114;2022-09-06T09:54:35;21.80;1.00
22532;DHT22;11432;46.924;7.114;2022-09-06T09:57:07;21.80;28.90
22532;DHT22;11432;46.924;7.114;2022-09-06T10:02:35;21.50;99.90
22532;DHT22;11432;46.924;7.114;2022-09-06T10:05:16;21.50;99.90
22532;DHT22;11432;46.924;7.114;2022-09-06T10:07:51;21.40;99.90
22532;DHT22;11432;46.924;7.114;2022-09-06T10:12:46;21.30;99.90
22532;DHT22;11432;46.924;7.114;2022-09-06T10:15:31;21.10;99.90
22532;DHT22;11432;46.924;7.114;2022-09-06T10:17:57;20.80;99.90
22532;DHT22;11432;46.924;7.114;2022-09-06T10:20:39;20.60;53.20
22532;DHT22;11432;46.924;7.114;2022-09-06T10:23:09;20.30;1.00
22532;DHT22;11432;46.924;7.114;2022-09-06T10:25:50;20.20;40.10
22532;DHT22;11432;46.924;7.114;2022-09-06T10:28:35;20.00;49.10
22532;DHT22;11432;46.924;7.114;2022-09-06T10:31:44;19.90;21.50
22532;DHT22;11432;46.924;7.114;2022-09-06T10:34:50;19.80;99.90
22532;DHT22;11432;46.924;7.114;2022-09-06T10:43:17;19.40;99.90
22532;DHT22;11432;46.924;7.114;2022-09-06T10:46:02;19.50;99.90
22532;DHT22;11432;46.924;7.114;2022-09-06T10:48:40;19.40;99.90
22532;DHT22;11432;46.924;7.114;2022-09-06T11:04:37;19.50;99.90
22532;DHT22;11432;46.924;7.114;2022-09-06T11:09:43;19.60;99.90
22532;DHT22;11432;46.924;7.114;2022-09-06T11:12:46;19.60;99.90
22532;DHT22;11432;46.924;7.114;2022-09-06T11:15:15;19.80;99.90
22532;DHT22;11432;46.924;7.114;2022-09-06T11:17:46;19.80;99.90
22532;DHT22;11432;46.924;7.114;2022-09-06T11:20:25;19.90;99.90
22532;DHT22;11432;46.924;7.114;2022-09-06T11:23:02;19.80;99.90
22532;DHT22;11432;46.924;7.114;2022-09-06T11:25:47;19.60;99.90
22532;DHT22;11432;46.924;7.114;2022-09-06T11:28:25;19.50;99.90
22532;DHT22;11432;46.924;7.114;2022-09-06T11:30:55;19.40;99.90
22532;DHT22;11432;46.924;7.114;2022-09-06T11:33:28;19.30;99.90
22532;DHT22;11432;46.924;7.114;2022-09-06T11:36:14;19.40;99.90
22532;DHT22;11432;46.924;7.114;2022-09-06T11:38:41;19.70;99.90
22532;DHT22;11432;46.924;7.114;2022-09-06T11:41:14;19.90;99.90
22532;DHT22;11432;46.924;7.114;2022-09-06T12:02:03;21.20;99.90
22532;DHT22;11432;46.924;7.114;2022-09-06T12:07:24;20.90;83.40
22532;DHT22;11432;46.924;7.114;2022-09-06T12:09:50;20.90;69.20
22532;DHT22;11432;46.924;7.114;2022-09-06T12:15:30;20.70;21.60
22532;DHT22;11432;46.924;7.114;2022-09-06T12:17:58;20.80;48.90
22532;DHT22;11432;46.924;7.114;2022-09-06T12:26:06;21.60;1.00
22532;DHT22;11432;46.924;7.114;2022-09-06T12:28:49;22.40;1.00
22532;DHT22;11432;46.924;7.114;2022-09-06T12:31:37;22.50;1.00
22532;DHT22;11432;46.924;7.114;2022-09-06T12:34:24;22.30;1.00
22532;DHT22;11432;46.924;7.114;2022-09-06T12:37:03;22.00;1.00
22532;DHT22;11432;46.924;7.114;2022-09-06T12:39:29;21.90;1.00
22532;DHT22;11432;46.924;7.114;2022-09-06T12:44:39;21.90;1.00
22532;DHT22;11432;46.924;7.114;2022-09-06T12:47:29;22.10;1.00
22532;DHT22;11432;46.924;7.114;2022-09-06T12:50:21;22.30;1.00
22532;DHT22;11432;46.924;7.114;2022-09-06T12:52:57;22.50;1.00
22532;DHT22;11432;46.924;7.114;2022-09-06T12:55:27;22.60;1.00
22532;DHT22;11432;46.924;7.114;2022-09-06T12:57:58;23.30;1.00
22532;DHT22;11432;46.924;7.114;2022-09-06T13:00:33;23.00;1.00
22532;DHT22;11432;46.924;7.114;2022-09-06T13:05:30;22.50;1.00
22532;DHT22;11432;46.924;7.114;2022-09-06T13:07:59;22.40;1.00
22532;DHT22;11432;46.924;7.114;2022-09-06T13:10:28;22.10;1.00
22532;DHT22;11432;46.924;7.114;2022-09-06T13:12:56;22.00;1.00
22532;DHT22;11432;46.924;7.114;2022-09-06T13:15:25;22.10;1.00
22532;DHT22;11432;46.924;7.114;2022-09-06T13:17:53;22.30;1.00
22532;DHT22;11432;46.924;7.114;2022-09-06T13:20:24;22.40;1.00
22532;DHT22;11432;46.924;7.114;2022-09-06T13:22:51;22.70;1.00
22532;DHT22;11432;46.924;7.114;2022-09-06T13:27:45;24.30;1.00
22532;DHT22;11432;46.924;7.114;2022-09-06T13:33:05;26.00;1.00
22532;DHT22;11432;46.924;7.114;2022-09-06T13:35:35;27.30;1.00
22532;DHT22;11432;46.924;7.114;2022-09-06T13:38:30;28.20;1.00
22532;DHT22;11432;46.924;7.114;2022-09-06T13:40:56;29.10;1.00
22532;DHT22;11432;46.924;7.114;2022-09-06T13:43:22;29.20;1.00
22532;DHT22;11432;46.924;7.114;2022-09-06T13:45:57;29.40;1.00
22532;DHT22;11432;46.924;7.114;2022-09-06T13:48:27;28.50;1.00
22532;DHT22;11432;46.924;7.114;2022-09-06T13:50:53;27.80;1.00
22532;DHT22;11432;46.924;7.114;2022-09-06T13:53:19;28.10;1.00
22532;DHT22;11432;46.924;7.114;2022-09-06T13:55:44;28.10;1.00
22532;DHT22;11432;46.924;7.114;2022-09-06T13:58:10;28.40;1.00
22532;DHT22;11432;46.924;7.114;2022-09-06T14:00:37;27.80;1.00
22532;DHT22;11432;46.924;7.114;2022-09-06T14:03:04;26.30;1.00
22532;DHT22;11432;46.924;7.114;2022-09-06T14:05:30;25.50;1.00
22532;DHT22;11432;46.924;7.114;2022-09-06T14:07:55;24.20;1.00
22532;DHT22;11432;46.924;7.114;2022-09-06T14:10:21;23.70;1.00
22532;DHT22;11432;46.924;7.114;2022-09-06T14:12:48;23.60;1.00
22532;DHT22;11432;46.924;7.114;2022-09-06T14:15:14;24.30;1.00
22532;DHT22;11432;46.924;7.114;2022-09-06T14:17:40;25.00;1.00
22532;DHT22;11432;46.924;7.114;2022-09-06T14:20:06;25.40;1.00
22532;DHT22;11432;46.924;7.114;2022-09-06T14:22:32;25.10;1.00
22532;DHT22;11432;46.924;7.114;2022-09-06T14:24:58;25.00;1.00
22532;DHT22;11432;46.924;7.114;2022-09-06T14:27:24;24.30;1.00
22532;DHT22;11432;46.924;7.114;2022-09-06T14:29:49;23.80;1.00
22532;DHT22;11432;46.924;7.114;2022-09-06T14:32:15;23.10;1.00
22532;DHT22;11432;46.924;7.114;2022-09-06T14:34:43;22.70;1.00
22532;DHT22;11432;46.924;7.114;2022-09-06T14:37:10;22.50;1.00
22532;DHT22;11432;46.924;7.114;2022-09-06T14:39:36;22.30;1.00
22532;DHT22;11432;46.924;7.114;2022-09-06T14:42:01;22.20;1.00
22532;DHT22;11432;46.924;7.114;2022-09-06T14:44:27;22.00;1.00
22532;DHT22;11432;46.924;7.114;2022-09-06T14:46:52;21.90;1.00
22532;DHT22;11432;46.924;7.114;2022-09-06T14:49:19;21.70;1.00
22532;DHT22;11432;46.924;7.114;2022-09-06T14:51:50;21.70;1.00
22532;DHT22;11432;46.924;7.114;2022-09-06T14:54:18;21.90;1.00
22532;DHT22;11432;46.924;7.114;2022-09-06T14:56:44;22.20;1.00
22532;DHT22;11432;46.924;7.114;2022-09-06T14:59:10;22.90;1.00
22532;DHT22;11432;46.924;7.114;2022-09-06T15:01:37;24.30;1.00
22532;DHT22;11432;46.924;7.114;2022-09-06T15:04:06;24.70;1.00
22532;DHT22;11432;46.924;7.114;2022-09-06T15:06:33;24.00;1.00
22532;DHT22;11432;46.924;7.114;2022-09-06T15:09:01;23.90;1.00
22532;DHT22;11432;46.924;7.114;2022-09-06T15:13:59;22.50;1.00
22532;DHT22;11432;46.924;7.114;2022-09-06T15:16:25;22.40;1.00
22532;DHT22;11432;46.924;7.114;2022-09-06T15:18:52;22.20;1.00
22532;DHT22;11432;46.924;7.114;2022-09-06T15:21:17;22.20;1.00
22532;DHT22;11432;46.924;7.114;2022-09-06T15:23:43;22.00;1.00
22532;DHT22;11432;46.924;7.114;2022-09-06T15:26:10;22.00;1.00
22532;DHT22;11432;46.924;7.114;2022-09-06T15:28:37;22.10;1.00
22532;DHT22;11432;46.924;7.114;2022-09-06T15:31:04;22.70;1.00
22532;DHT22;11432;46.924;7.114;2022-09-06T15:33:31;23.30;1.00
22532;DHT22;11432;46.924;7.114;2022-09-06T15:35:57;23.40;1.00
22532;DHT22;11432;46.924;7.114;2022-09-06T15:38:26;23.10;1.00
22532;DHT22;11432;46.924;7.114;2022-09-06T15:40:51;22.90;1.00
22532;DHT22;11432;46.924;7.114;2022-09-06T15:43:27;22.80;1.00
22532;DHT22;11432;46.924;7.114;2022-09-06T15:45:52;22.70;1.00
22532;DHT22;11432;46.924;7.114;2022-09-06T15:48:18;22.80;1.00
22532;DHT22;11432;46.924;7.114;2022-09-06T15:50:44;22.90;1.00
22532;DHT22;11432;46.924;7.114;2022-09-06T15:53:09;22.90;1.00
22532;DHT22;11432;46.924;7.114;2022-09-06T15:55:35;23.20;1.00
22532;DHT22;11432;46.924;7.114;2022-09-06T15:58:19;23.10;1.00
22532;DHT22;11432;46.924;7.114;2022-09-06T16:00:45;22.90;1.00
22532;DHT22;11432;46.924;7.114;2022-09-06T16:03:11;22.60;1.00
22532;DHT22;11432;46.924;7.114;2022-09-06T16:05:38;22.80;1.00
22532;DHT22;11432;46.924;7.114;2022-09-06T16:08:03;23.00;1.00
22532;DHT22;11432;46.924;7.114;2022-09-06T16:10:29;23.20;1.00
22532;DHT22;11432;46.924;7.114;2022-09-06T16:12:55;23.50;1.00
22532;DHT22;11432;46.924;7.114;2022-09-06T16:15:20;23.70;1.00
22532;DHT22;11432;46.924;7.114;2022-09-06T16:17:46;23.80;1.00
22532;DHT22;11432;46.924;7.114;2022-09-06T16:20:13;23.90;1.00
22532;DHT22;11432;46.924;7.114;2022-09-06T16:22:39;23.60;1.00
22532;DHT22;11432;46.924;7.114;2022-09-06T16:25:05;23.60;1.00
22532;DHT22;11432;46.924;7.114;2022-09-06T16:27:31;23.30;1.00
22532;DHT22;11432;46.924;7.114;2022-09-06T16:29:56;23.30;1.00
22532;DHT22;11432;46.924;7.114;2022-09-06T16:32:23;22.90;1.00
22532;DHT22;11432;46.924;7.114;2022-09-06T16:34:48;22.70;1.00
22532;DHT22;11432;46.924;7.114;2022-09-06T16:37:14;22.40;1.00
22532;DHT22;11432;46.924;7.114;2022-09-06T16:39:40;22.10;1.00
22532;DHT22;11432;46.924;7.114;2022-09-06T16:42:06;21.90;1.00
22532;DHT22;11432;46.924;7.114;2022-09-06T16:44:32;21.90;1.00
22532;DHT22;11432;46.924;7.114;2022-09-06T16:46:57;21.80;1.00
22532;DHT22;11432;46.924;7.114;2022-09-06T16:49:28;21.80;1.00
22532;DHT22;11432;46.924;7.114;2022-09-06T16:51:54;21.60;1.00
22532;DHT22;11432;46.924;7.114;2022-09-06T16:54:20;21.60;1.00
22532;DHT22;11432;46.924;7.114;2022-09-06T16:56:46;21.60;1.00
22532;DHT22;11432;46.924;7.114;2022-09-06T16:59:12;21.60;1.00
22532;DHT22;11432;46.924;7.114;2022-09-06T17:01:41;21.40;1.00
22532;DHT22;11432;46.924;7.114;2022-09-06T17:04:08;21.30;1.00
22532;DHT22;11432;46.924;7.114;2022-09-06T17:06:34;21.30;1.00
22532;DHT22;11432;46.924;7.114;2022-09-06T17:09:03;21.10;1.00
22532;DHT22;11432;46.924;7.114;2022-09-06T17:11:29;21.00;1.00
22532;DHT22;11432;46.924;7.114;2022-09-06T17:13:55;21.00;1.00
22532;DHT22;11432;46.924;7.114;2022-09-06T17:16:22;20.90;1.00
22532;DHT22;11432;46.924;7.114;2022-09-06T17:19:07;20.80;1.00
22532;DHT22;11432;46.924;7.114;2022-09-06T17:21:33;20.80;1.00
22532;DHT22;11432;46.924;7.114;2022-09-06T17:23:59;20.70;1.00
22532;DHT22;11432;46.924;7.114;2022-09-06T17:26:30;20.70;1.00
22532;DHT22;11432;46.924;7.114;2022-09-06T17:28:56;20.70;1.00
22532;DHT22;11432;46.924;7.114;2022-09-06T17:31:23;20.70;1.00
22532;DHT22;11432;46.924;7.114;2022-09-06T17:33:49;20.70;1.00
22532;DHT22;11432;46.924;7.114;2022-09-06T17:36:20;20.70;1.00
22532;DHT22;11432;46.924;7.114;2022-09-06T17:38:48;20.70;1.00
22532;DHT22;11432;46.924;7.114;2022-09-06T17:41:26;20.60;1.00
22532;DHT22;11432;46.924;7.114;2022-09-06T17:43:53;20.50;1.00
22532;DHT22;11432;46.924;7.114;2022-09-06T17:46:22;20.50;1.00
22532;DHT22;11432;46.924;7.114;2022-09-06T17:48:48;20.50;1.00
22532;DHT22;11432;46.924;7.114;2022-09-06T17:51:14;20.40;1.00
22532;DHT22;11432;46.924;7.114;2022-09-06T17:53:40;20.40;1.00
22532;DHT22;11432;46.924;7.114;2022-09-06T17:56:09;20.40;1.00
22532;DHT22;11432;46.924;7.114;2022-09-06T17:58:36;20.40;1.00